createdAt,value
2022-08-26T00:01:58.215Z,100699.13
2022-08-26T00:05:03.795Z,100704.50
2022-08-26T00:08:06.261Z,100701.81
2022-08-26T00:11:11.674Z,100700.13
2022-08-26T00:14:15.325Z,100691.47
2022-08-26T00:17:18.722Z,100695.72
2022-08-26T00:20:24.883Z,100692.53
2022-08-26T00:23:28.997Z,100689.97
2022-08-26T00:26:34.793Z,100691.81
2022-08-26T00:29:37.783Z,100692.81
2022-08-26T00:32:40.434Z,100695.16
2022-08-26T00:35:47.239Z,100695.00
2022-08-26T00:38:49.716Z,100711.28
2022-08-26T00:41:53.697Z,100702.66
2022-08-26T00:44:56.593Z,100694.34
2022-08-26T00:48:03.977Z,100693.16
2022-08-26T00:51:12.662Z,100690.34
2022-08-26T00:54:16.213Z,100689.38
2022-08-26T00:57:22.784Z,100687.41
2022-08-26T01:00:28.131Z,100699.22
2022-08-26T01:03:32.905Z,100700.16
2022-08-26T01:06:35.744Z,100698.59
2022-08-26T01:09:38.785Z,100699.66
2022-08-26T01:12:47.690Z,100694.59
2022-08-26T01:15:54.801Z,100691.47
2022-08-26T01:19:02.082Z,100689.97
2022-08-26T01:22:10.147Z,100698.03
2022-08-26T01:25:14.854Z,100690.69
2022-08-26T01:28:22.577Z,100686.16
2022-08-26T01:31:28.351Z,100685.19
2022-08-26T01:34:34.988Z,100691.81
2022-08-26T01:37:40.452Z,100694.59
2022-08-26T01:40:45.831Z,100695.59
2022-08-26T01:43:54.149Z,100688.41
2022-08-26T01:46:58.731Z,100693.88
2022-08-26T01:50:05.226Z,100694.75
2022-08-26T01:53:12.072Z,100689.28
2022-08-26T01:56:16.607Z,100682.19
2022-08-26T01:59:21.338Z,100673.22
2022-08-26T02:02:25.048Z,100686.03
2022-08-26T02:05:27.509Z,100677.97
2022-08-26T02:08:37.840Z,100680.66
2022-08-26T02:11:41.903Z,100672.13
2022-08-26T02:14:50.285Z,100666.28
2022-08-26T02:17:53.868Z,100673.63
2022-08-26T02:20:58.494Z,100672.13
2022-08-26T02:24:10.107Z,100662.97
2022-08-26T02:27:14.751Z,100666.34
2022-08-26T02:30:20.586Z,100660.66
2022-08-26T02:33:23.070Z,100671.25
2022-08-26T02:36:28.580Z,100670.16
2022-08-26T02:39:32.721Z,100673.06
2022-08-26T02:42:37.468Z,100668.19
2022-08-26T02:45:41.536Z,100668.34
2022-08-26T02:48:44.436Z,100655.66
2022-08-26T02:51:49.802Z,100659.38
2022-08-26T02:54:53.576Z,100651.63
2022-08-26T02:57:57.343Z,100657.81
2022-08-26T03:01:00.123Z,100662.19
2022-08-26T03:04:07.142Z,100656.03
2022-08-26T03:07:09.759Z,100650.31
2022-08-26T03:10:13.142Z,100652.03
2022-08-26T03:13:18.580Z,100645.56
2022-08-26T03:16:21.618Z,100643.88
2022-08-26T03:19:26.984Z,100641.72
2022-08-26T03:22:29.501Z,100637.66
2022-08-26T03:25:32.058Z,100629.72
2022-08-26T03:28:36.504Z,100637.50
2022-08-26T03:31:38.257Z,100630.00
2022-08-26T03:34:40.792Z,100630.81
2022-08-26T03:37:43.646Z,100636.63
2022-08-26T03:40:46.851Z,100634.53
2022-08-26T03:43:50.985Z,100631.41
2022-08-26T03:46:54.563Z,100635.94
2022-08-26T03:49:59.032Z,100628.44
2022-08-26T03:53:02.452Z,100634.63
2022-08-26T03:56:06.089Z,100625.16
2022-08-26T03:59:09.873Z,100623.31
2022-08-26T04:02:12.360Z,100628.97
2022-08-26T04:05:17.455Z,100628.13
2022-08-26T04:08:20.202Z,100629.38
2022-08-26T04:11:25.353Z,100631.81
2022-08-26T04:14:29.650Z,100629.03
2022-08-26T04:17:32.169Z,100626.50
2022-08-26T04:20:34.695Z,100626.19
2022-08-26T04:23:46.960Z,100621.13
2022-08-26T04:26:50.655Z,100610.00
2022-08-26T04:29:55.261Z,100629.81
2022-08-26T04:32:58.211Z,100636.03
2022-08-26T04:36:02.224Z,100640.06
2022-08-26T04:39:05.463Z,100638.31
2022-08-26T04:42:07.994Z,100638.34
2022-08-26T04:45:14.073Z,100640.63
2022-08-26T04:48:16.780Z,100638.09
2022-08-26T04:51:20.388Z,100633.88
2022-08-26T04:54:22.998Z,100632.06
2022-08-26T04:57:27.597Z,100634.53
2022-08-26T05:00:31.539Z,100629.41
2022-08-26T05:03:34.001Z,100639.97
2022-08-26T05:06:37.640Z,100628.28
2022-08-26T05:09:41.096Z,100622.44
2022-08-26T05:12:44.370Z,100628.22
2022-08-26T05:15:49.314Z,100643.13
2022-08-26T05:18:53.959Z,100635.03
2022-08-26T05:21:56.467Z,100642.84
2022-08-26T05:24:58.930Z,100643.84
2022-08-26T05:28:01.386Z,100642.75
2022-08-26T05:31:12.511Z,100653.97
2022-08-26T05:34:17.858Z,100658.16
2022-08-26T05:37:22.965Z,100659.97
2022-08-26T05:40:25.821Z,100664.22
2022-08-26T05:43:28.760Z,100655.88
2022-08-26T05:46:35.129Z,100660.19
2022-08-26T05:49:37.873Z,100669.16
2022-08-26T05:52:53.812Z,100664.44
2022-08-26T05:55:56.677Z,100668.81
2022-08-26T05:59:01.480Z,100663.53
2022-08-26T06:02:06.124Z,100661.19
2022-08-26T06:05:09.544Z,100663.06
2022-08-26T06:08:13.862Z,100659.88
2022-08-26T06:11:19.596Z,100651.41
2022-08-26T06:14:22.974Z,100654.94
2022-08-26T06:17:26.776Z,100651.72
2022-08-26T06:20:32.074Z,100652.94
2022-08-26T06:23:52.333Z,100657.00
2022-08-26T06:26:56.252Z,100655.97
2022-08-26T06:29:59.345Z,100659.00
2022-08-26T06:33:03.829Z,100653.94
2022-08-26T06:36:08.414Z,100658.66
2022-08-26T06:39:14.326Z,100659.75
2022-08-26T06:42:16.768Z,100659.19
2022-08-26T06:45:19.778Z,100655.81
2022-08-26T06:48:23.874Z,100650.19
2022-08-26T06:51:28.834Z,100661.97
2022-08-26T06:54:32.420Z,100663.69
2022-08-26T06:57:37.779Z,100649.59
2022-08-26T07:00:47.219Z,100655.38
2022-08-26T07:03:53.059Z,100651.63
2022-08-26T07:06:57.437Z,100651.88
2022-08-26T07:09:59.981Z,100641.75
2022-08-26T07:13:02.449Z,100652.66
2022-08-26T07:16:05.835Z,100652.78
2022-08-26T07:19:11.014Z,100650.84
2022-08-26T07:22:14.135Z,100655.31
2022-08-26T07:25:16.667Z,100660.19
2022-08-26T07:28:22.448Z,100653.25
2022-08-26T07:31:28.060Z,100646.88
2022-08-26T07:34:33.606Z,100652.53
2022-08-26T07:37:39.220Z,100651.66
2022-08-26T07:40:42.517Z,100657.06
2022-08-26T07:43:45.736Z,100651.63
2022-08-26T07:46:53.356Z,100654.56
2022-08-26T07:49:58.580Z,100653.44
2022-08-26T07:53:02.321Z,100648.88
2022-08-26T07:56:05.456Z,100657.78
2022-08-26T07:59:14.061Z,100657.63
2022-08-26T08:02:17.629Z,100651.34
2022-08-26T08:05:23.725Z,100648.53
2022-08-26T08:08:36.307Z,100651.53
2022-08-26T08:11:38.805Z,100651.94
2022-08-26T08:14:42.160Z,100654.84
2022-08-26T08:17:46.217Z,100646.25
2022-08-26T08:21:04.652Z,100645.97
2022-08-26T08:24:13.537Z,100643.81
2022-08-26T08:27:17.243Z,100650.75
2022-08-26T08:30:24.390Z,100646.44
2022-08-26T08:33:27.131Z,100644.50
2022-08-26T08:36:32.192Z,100641.28
2022-08-26T08:39:38.887Z,100630.00
2022-08-26T08:42:46.898Z,100627.06
2022-08-26T08:45:55.480Z,100620.00
2022-08-26T08:49:00.482Z,100616.31
2022-08-26T08:52:11.549Z,100606.78
2022-08-26T08:55:18.276Z,100600.22
2022-08-26T08:58:25.457Z,100597.09
2022-08-26T09:01:55.672Z,100579.25
2022-08-26T09:05:15.066Z,100579.72
2022-08-26T09:08:24.816Z,100587.81
2022-08-26T09:11:27.308Z,100592.66
2022-08-26T09:14:29.906Z,100594.75
2022-08-26T09:17:44.816Z,100582.03
2022-08-26T09:20:53.984Z,100597.19
2022-08-26T09:23:58.434Z,100584.56
2022-08-26T09:27:00.930Z,100582.06
2022-08-26T09:30:03.510Z,100582.31
2022-08-26T09:33:10.124Z,100575.84
2022-08-26T09:36:16.919Z,100580.97
2022-08-26T09:39:37.882Z,100577.66
2022-08-26T09:42:40.640Z,100586.03
2022-08-26T09:45:50.826Z,100581.41
2022-08-26T09:48:55.284Z,100569.84
2022-08-26T09:52:12.587Z,100574.09
2022-08-26T09:55:22.309Z,100569.69
2022-08-26T09:58:37.945Z,100568.22
2022-08-26T10:01:43.226Z,100563.13
2022-08-26T10:04:51.839Z,100556.22
2022-08-26T10:07:55.249Z,100539.16
2022-08-26T10:11:02.273Z,100544.84
2022-08-26T10:14:11.085Z,100543.50
2022-08-26T10:17:23.169Z,100536.38
2022-08-26T10:20:27.865Z,100531.28
2022-08-26T10:23:33.975Z,100511.06
2022-08-26T10:26:45.097Z,100501.16
2022-08-26T10:29:50.885Z,100496.97
2022-08-26T10:32:58.881Z,100497.28
2022-08-26T10:36:12.253Z,100487.38
2022-08-26T10:39:22.948Z,100499.38
2022-08-26T10:42:33.397Z,100497.50
2022-08-26T10:45:39.319Z,100487.19
2022-08-26T10:48:52.250Z,100484.41
2022-08-26T10:52:01.885Z,100484.41
2022-08-26T10:55:15.774Z,100476.78
2022-08-26T10:58:32.847Z,100468.63
2022-08-26T11:01:43.365Z,100455.09
2022-08-26T11:04:54.298Z,100454.72
2022-08-26T11:08:20.328Z,100439.88
2022-08-26T11:11:46.926Z,100428.75
2022-08-26T11:14:58.403Z,100433.47
2022-08-26T11:18:02.953Z,100423.69
2022-08-26T11:21:47.667Z,100418.72
2022-08-26T11:25:11.490Z,100402.25
2022-08-26T11:28:34.342Z,100406.91
2022-08-26T11:31:54.693Z,100394.81
2022-08-26T11:35:00.484Z,100395.16
2022-08-26T11:38:06.003Z,100390.91
2022-08-26T11:41:11.439Z,100384.09
2022-08-26T11:44:21.779Z,100371.34
2022-08-26T11:47:30.955Z,100357.34
2022-08-26T11:50:33.416Z,100346.78
2022-08-26T11:53:39.526Z,100322.88
2022-08-26T11:56:43.780Z,100327.69
2022-08-26T11:59:47.633Z,100331.28
2022-08-26T12:02:51.283Z,100327.31
2022-08-26T12:05:55.425Z,100326.09
2022-08-26T12:09:02.225Z,100324.41
2022-08-26T12:12:13.685Z,100315.78
2022-08-26T12:15:21.931Z,100311.06
2022-08-26T12:18:29.581Z,100306.19
2022-08-26T12:21:34.790Z,100300.94
2022-08-26T12:24:44.136Z,100292.56
2022-08-26T12:27:51.798Z,100283.97
2022-08-26T12:31:02.689Z,100286.50
2022-08-26T12:34:17.420Z,100295.63
2022-08-26T12:37:20.433Z,100291.81
2022-08-26T12:40:32.151Z,100277.53
2022-08-26T12:43:40.810Z,100274.59
2022-08-26T12:46:49.208Z,100295.72
2022-08-26T12:50:03.061Z,100295.06
2022-08-26T12:53:14.158Z,100280.81
2022-08-26T12:56:21.562Z,100299.34
2022-08-26T12:59:26.329Z,100296.19
2022-08-26T13:02:37.489Z,100283.84
2022-08-26T13:05:39.868Z,100275.91
2022-08-26T13:08:44.098Z,100297.88
2022-08-26T13:11:59.025Z,100300.56
2022-08-26T13:15:02.725Z,100284.81
2022-08-26T13:18:07.646Z,100286.25
2022-08-26T13:21:14.373Z,100295.88
2022-08-26T13:24:21.127Z,100307.31
2022-08-26T13:27:26.310Z,100289.09
2022-08-26T13:30:28.932Z,100280.59
2022-08-26T13:33:33.110Z,100274.59
2022-08-26T13:36:35.601Z,100268.13
2022-08-26T13:39:38.153Z,100264.19
2022-08-26T13:42:49.379Z,100249.88
2022-08-26T13:45:52.557Z,100257.34
2022-08-26T13:48:56.730Z,100268.66
2022-08-26T13:51:59.232Z,100274.38
2022-08-26T13:55:01.792Z,100308.28
2022-08-26T13:58:04.310Z,100315.84
2022-08-26T14:01:08.706Z,100309.41
2022-08-26T14:04:12.550Z,100281.69
2022-08-26T14:07:15.249Z,100266.97
2022-08-26T14:10:17.933Z,100268.47
2022-08-26T14:13:20.517Z,100262.75
2022-08-26T14:16:26.585Z,100280.53
2022-08-26T14:19:31.431Z,100299.81
2022-08-26T14:22:34.099Z,100298.50
2022-08-26T14:25:36.581Z,100294.34
2022-08-26T14:28:39.289Z,100292.59
2022-08-26T14:31:41.813Z,100303.19
2022-08-26T14:34:45.652Z,100300.44
2022-08-26T14:37:48.631Z,100295.72
2022-08-26T14:40:51.130Z,100300.19
2022-08-26T14:43:58.038Z,100297.88
2022-08-26T14:47:01.949Z,100280.44
2022-08-26T14:50:07.056Z,100278.19
2022-08-26T14:53:27.091Z,100261.91
2022-08-26T14:56:31.680Z,100273.88
2022-08-26T14:59:35.952Z,100286.25
2022-08-26T15:02:39.120Z,100267.72
2022-08-26T15:05:48.119Z,100268.56
2022-08-26T15:08:50.754Z,100253.31
2022-08-26T15:11:53.983Z,100239.56
2022-08-26T15:14:56.505Z,100244.00
2022-08-26T15:17:59.021Z,100247.19
2022-08-26T15:21:03.128Z,100241.84
2022-08-26T15:24:06.117Z,100252.97
2022-08-26T15:27:09.030Z,100241.63
2022-08-26T15:30:12.822Z,100245.19
2022-08-26T15:33:15.660Z,100239.28
2022-08-26T15:36:19.512Z,100237.41
2022-08-26T15:39:22.367Z,100238.31
2022-08-26T15:42:25.229Z,100228.25
2022-08-26T15:45:27.953Z,100235.19
2022-08-26T15:48:30.435Z,100241.81
2022-08-26T15:51:45.627Z,100229.91
2022-08-26T15:54:48.582Z,100223.22
2022-08-26T15:57:53.019Z,100226.75
2022-08-26T16:00:55.865Z,100234.47
2022-08-26T16:03:59.520Z,100239.56
2022-08-26T16:07:03.460Z,100279.09
2022-08-26T16:10:06.851Z,100299.81
2022-08-26T16:13:11.688Z,100309.47
2022-08-26T16:16:17.980Z,100280.94
2022-08-26T16:19:21.163Z,100293.38
2022-08-26T16:22:27.131Z,100277.53
2022-08-26T16:25:31.856Z,100251.88
2022-08-26T16:28:34.380Z,100266.84
2022-08-26T16:31:38.319Z,100259.63
2022-08-26T16:34:47.077Z,100252.09
2022-08-26T16:38:00.820Z,100229.94
2022-08-26T16:41:03.369Z,100229.94
2022-08-26T16:44:07.183Z,100232.28
2022-08-26T16:47:09.763Z,100234.09
2022-08-26T16:50:12.940Z,100229.69
2022-08-26T16:53:17.066Z,100230.28
2022-08-26T16:56:22.445Z,100220.69
2022-08-26T16:59:24.975Z,100222.63
2022-08-26T17:02:27.479Z,100224.28
2022-08-26T17:05:30.677Z,100235.03
2022-08-26T17:08:34.521Z,100236.72
2022-08-26T17:11:37.016Z,100233.00
2022-08-26T17:14:39.491Z,100244.16
2022-08-26T17:17:42.357Z,100243.50
2022-08-26T17:20:45.602Z,100240.50
2022-08-26T17:23:49.410Z,100243.25
2022-08-26T17:26:55.648Z,100237.66
2022-08-26T17:29:58.301Z,100240.84
2022-08-26T17:33:01.017Z,100233.59
2022-08-26T17:36:13.229Z,100234.41
2022-08-26T17:39:17.059Z,100266.50
2022-08-26T17:42:19.529Z,100272.34
2022-08-26T17:45:22.659Z,100286.16
2022-08-26T17:48:25.233Z,100257.91
2022-08-26T17:51:28.248Z,100247.38
2022-08-26T17:54:32.206Z,100236.25
2022-08-26T17:57:40.853Z,100225.06
2022-08-26T18:00:45.764Z,100199.13
2022-08-26T18:03:48.341Z,100180.94
2022-08-26T18:06:50.860Z,100174.97
2022-08-26T18:09:54.659Z,100173.13
2022-08-26T18:12:57.216Z,100185.19
2022-08-26T18:15:59.813Z,100193.09
2022-08-26T18:19:02.321Z,100192.47
2022-08-26T18:22:05.706Z,100200.53
2022-08-26T18:25:10.695Z,100204.03
2022-08-26T18:28:13.469Z,100209.81
2022-08-26T18:31:16.399Z,100209.16
2022-08-26T18:34:19.450Z,100211.28
2022-08-26T18:37:21.936Z,100216.13
2022-08-26T18:40:25.989Z,100215.78
2022-08-26T18:43:28.505Z,100203.16
2022-08-26T18:46:31.227Z,100214.94
2022-08-26T18:49:33.833Z,100224.03
2022-08-26T18:52:36.319Z,100226.31
2022-08-26T18:55:40.116Z,100225.72
2022-08-26T18:58:42.656Z,100220.50
2022-08-26T19:01:48.009Z,100227.13
2022-08-26T19:04:53.061Z,100228.97
2022-08-26T19:07:56.528Z,100224.88
2022-08-26T19:11:00.497Z,100241.13
2022-08-26T19:14:03.342Z,100235.63
2022-08-26T19:17:06.154Z,100242.22
2022-08-26T19:20:10.259Z,100245.63
2022-08-26T19:23:30.207Z,100242.69
2022-08-26T19:26:36.193Z,100242.69
2022-08-26T19:29:38.672Z,100228.28
2022-08-26T19:32:41.169Z,100214.44
2022-08-26T19:35:44.066Z,100220.22
2022-08-26T19:38:47.566Z,100224.75
2022-08-26T19:41:51.769Z,100222.47
2022-08-26T19:45:24.423Z,100214.66
2022-08-26T19:48:27.448Z,100234.41
2022-08-26T19:51:31.756Z,100240.34
2022-08-26T19:54:34.566Z,100238.50
2022-08-26T19:57:39.938Z,100237.50
2022-08-26T20:00:42.801Z,100223.13
2022-08-26T20:03:46.014Z,100232.53
2022-08-26T20:06:48.516Z,100214.16
2022-08-26T20:09:59.345Z,100220.19
2022-08-26T20:13:03.155Z,100218.22
2022-08-26T20:16:06.262Z,100228.84
2022-08-26T20:19:27.056Z,100230.03
2022-08-26T20:22:29.998Z,100236.47
2022-08-26T20:25:33.597Z,100246.06
2022-08-26T20:28:37.539Z,100248.28
2022-08-26T20:31:40.533Z,100253.41
2022-08-26T20:34:43.063Z,100257.53
2022-08-26T20:37:46.715Z,100259.13
2022-08-26T20:40:49.245Z,100269.19
2022-08-26T20:43:53.224Z,100265.66
2022-08-26T20:46:56.567Z,100268.94
2022-08-26T20:49:59.185Z,100275.66
2022-08-26T20:53:01.676Z,100273.59
2022-08-26T20:56:06.377Z,100274.00
2022-08-26T20:59:10.381Z,100275.47
2022-08-26T21:02:13.346Z,100268.00
2022-08-26T21:05:15.872Z,100267.88
2022-08-26T21:08:18.437Z,100268.16
2022-08-26T21:11:22.313Z,100273.94
2022-08-26T21:14:26.162Z,100278.59
2022-08-26T21:17:30.241Z,100278.00
2022-08-26T21:20:33.612Z,100266.56
2022-08-26T21:23:37.229Z,100268.66
2022-08-26T21:26:40.140Z,100272.34
2022-08-26T21:29:44.318Z,100268.38
2022-08-26T21:32:51.134Z,100263.84
2022-08-26T21:35:54.637Z,100260.72
2022-08-26T21:38:57.332Z,100262.97
2022-08-26T21:41:59.815Z,100261.56
2022-08-26T21:45:06.766Z,100263.94
2022-08-26T21:48:09.414Z,100266.59
2022-08-26T21:51:14.061Z,100265.25
2022-08-26T21:54:17.975Z,100272.44
2022-08-26T21:57:20.480Z,100273.75
2022-08-26T22:00:24.455Z,100285.72
2022-08-26T22:03:27.075Z,100281.19
2022-08-26T22:06:29.700Z,100286.72
2022-08-26T22:09:32.653Z,100293.19
2022-08-26T22:12:35.272Z,100296.16
2022-08-26T22:15:40.658Z,100299.09
2022-08-26T22:18:43.795Z,100293.59
2022-08-26T22:21:47.364Z,100287.25
2022-08-26T22:24:49.853Z,100274.66
2022-08-26T22:27:52.613Z,100272.22
2022-08-26T22:30:56.536Z,100268.34
2022-08-26T22:33:59.818Z,100264.84
2022-08-26T22:37:03.147Z,100271.00
2022-08-26T22:40:06.772Z,100270.09
2022-08-26T22:43:09.389Z,100254.25
2022-08-26T22:46:18.171Z,100253.19
2022-08-26T22:49:20.984Z,100248.97
2022-08-26T22:52:23.525Z,100252.50
2022-08-26T22:55:26.598Z,100248.13
2022-08-26T22:58:30.970Z,100245.50
2022-08-26T23:01:37.241Z,100228.63
2022-08-26T23:04:40.896Z,100222.63
2022-08-26T23:07:43.549Z,100213.91
2022-08-26T23:10:47.965Z,100210.75
2022-08-26T23:13:50.484Z,100217.19
2022-08-26T23:16:54.381Z,100203.78
2022-08-26T23:19:58.060Z,100196.00
2022-08-26T23:23:01.356Z,100185.81
2022-08-26T23:26:06.328Z,100195.78
2022-08-26T23:29:11.056Z,100195.97
2022-08-26T23:32:14.879Z,100194.47
2022-08-26T23:35:21.442Z,100200.22
2022-08-26T23:38:23.907Z,100189.47
2022-08-26T23:41:27.529Z,100185.63
2022-08-26T23:44:31.226Z,100182.47
2022-08-26T23:47:35.125Z,100185.81
2022-08-26T23:50:55.289Z,100190.69
2022-08-26T23:53:58.418Z,100187.38
2022-08-26T23:57:00.940Z,100181.28
